Chapel Hill, Texas
Current Conditions -  °F | °C
As of 10:53 AM on Thursday 23 Oct 2014 (Local Time) from KTYR Reporting Station
Clear Clear  
Wind Chill: 66°   Ceiling: Unl
Heat Index: 66°   Visibility: 10mi
Dew Point: 50°   Wind: 5mph
Humidity: 56%   Direction: 130°SE
Pressure: 30.18"   Gusts: NA
Location:  32.3003°N, 95.1871°W
Report Text: KTYR 231553Z 13004KT 10SM CLR 19/10 A3018 RMK AO2 SLP215 T01890100
Loading
Personal Weather Stations






























Interactive Weather Map
Tropical Storm Tracking
New forecast layout! Learn more

10-Day Weather Forecast

Advertisements
Track Severe Weather on mobile